メインページ
METAR-TAF:

METAR-TAF

空港 :

ナラーティワート空港

Narathiwat, タイ

緯度: 6-31-12N, 経度: 101-44-36E, 海抜: 5m

現時点の気象観測

当レポートは56分前の05:00(UTC)に作成
東/北東の風 4kt、からの間で変化する
気温 31°C
湿度 66%
気圧 1010 hPa
視程10km以上
高度2200ftの雲はほとんどない

METAR: VTSC 180500Z 06004KT 010V100 9999 FEW022 31/24 Q1010 NOSIG

時間: 12:56 (05:56 UTC)

予報

当レポートは56分前の05:00(UTC)に作成
予報は18日の 06時(UTC)から 19日の 06時(UTC)まで有効
西の風 8kt
視程10km以上
高度2000ftの雲は散在している
高度10000ftの雲は散在している
18日の 07時(UTC)から 18日の 13時(UTC)まで一時的に
変向風 15kt、最大25ktの突風を伴う
視程: 4000m
高度1600ftの雲はほとんどない, 積乱雲.
高度1800ftの雲は散在している
高度10000ftの千切れ雲あり
激しい雷雨, 雨
18日の 13時(UTC)から 18日の 15時(UTC)まで徐々に
の風 3kt

TAF: VTSC 180500Z 1806/1906 26008KT 9999 SCT020 SCT100 TEMPO 1807/1813 VRB15G25KT 4000 TSRA FEW016CB SCT018 BKN100 BECMG 1813/1815 17003KT

4,000以上の空港の気象観測と天気予報(METAR報とTAF報)

利用可能な観測所は地図上に黄色い丸と赤い丸で示す。

丸の上にカーソルを重ねると観測所名を参照できる。

次にクリックすると気象観測と天気予報を参照できる。

マップの切り替え:黒色「×」印の緑ボタンをクリックして拡大、「-」印の緑ボタンをクリックして縮小、緑色の三角印をクリックして隣りの地図に切り替え


METAR-TAF: